Time;durP1;ratioP1;P1;durP2;ratioP2;P2;SDS_P1;SDS_P2;PMS_P1;PMS_P2;Temp;Humidity;BMP_temperature;BMP_pressure;BME280_temperature;BME280_humidity;BME280_pressure;Samples;Min_cycle;Max_cycle;Signal;HPM_P1;HPM_P2
2023/12/19 00:00:43;;;;;;;12.00;9.63;;;7.50;99.90;;;;;;5053044;28;20676;-61
2023/12/19 00:03:10;;;;;;;13.07;10.65;;;7.50;99.90;;;;;;5052665;28;20667;-59
2023/12/19 00:05:37;;;;;;;13.32;10.25;;;7.60;99.90;;;;;;5052981;28;20220;-61
2023/12/19 00:08:04;;;;;;;15.18;11.50;;;7.60;99.90;;;;;;5052441;28;20596;-60
2023/12/19 00:10:32;;;;;;;15.18;10.10;;;7.60;99.90;;;;;;5052691;28;20228;-60
2023/12/19 00:12:59;;;;;;;12.88;9.60;;;7.60;99.90;;;;;;5052741;28;20228;-60
2023/12/19 00:15:25;;;;;;;14.50;11.13;;;7.60;99.90;;;;;;5052563;28;20201;-61
2023/12/19 00:17:52;;;;;;;14.18;10.70;;;7.60;99.90;;;;;;5052645;28;20244;-62
2023/12/19 00:20:19;;;;;;;11.07;9.75;;;7.60;99.90;;;;;;5052970;28;20578;-60
2023/12/19 00:22:46;;;;;;;13.63;11.57;;;7.60;99.90;;;;;;5053290;28;20201;-61
2023/12/19 00:25:12;;;;;;;12.95;11.00;;;7.60;99.90;;;;;;5052825;28;20572;-60
2023/12/19 00:27:41;;;;;;;14.07;10.98;;;7.60;99.90;;;;;;5053321;28;20689;-60
2023/12/19 00:30:08;;;;;;;14.18;10.95;;;7.60;99.90;;;;;;5058260;28;20205;-62
2023/12/19 00:32:35;;;;;;;16.65;12.48;;;7.60;99.90;;;;;;5058651;28;20211;-61
2023/12/19 00:35:02;;;;;;;14.70;10.25;;;7.60;99.90;;;;;;5056778;28;20287;-60
2023/12/19 00:37:28;;;;;;;15.00;11.98;;;7.70;99.90;;;;;;5056268;28;20240;-59
2023/12/19 00:39:55;;;;;;;13.52;10.68;;;7.70;99.90;;;;;;5056879;28;20228;-60
2023/12/19 00:42:22;;;;;;;13.93;10.98;;;7.70;99.90;;;;;;5056987;28;20675;-59
2023/12/19 00:44:50;;;;;;;13.50;10.60;;;7.70;99.90;;;;;;5057169;28;20205;-60
2023/12/19 00:47:17;;;;;;;15.88;11.00;;;7.70;99.90;;;;;;5056116;28;20224;-60
2023/12/19 00:49:44;;;;;;;13.05;10.80;;;7.70;99.90;;;;;;5056049;28;20576;-60
2023/12/19 00:52:10;;;;;;;11.55;10.35;;;7.70;99.90;;;;;;5056018;28;20667;-60
2023/12/19 00:54:37;;;;;;;15.02;11.98;;;7.70;99.90;;;;;;5056210;28;20277;-60
2023/12/19 00:57:04;;;;;;;12.50;10.65;;;7.70;99.90;;;;;;5056396;28;20707;-60
2023/12/19 00:59:31;;;;;;;11.57;9.45;;;7.70;99.90;;;;;;5056205;28;20198;-60
2023/12/19 01:01:59;;;;;;;15.77;10.80;;;7.70;99.90;;;;;;5056120;28;20299;-60
2023/12/19 01:04:26;;;;;;;13.57;9.65;;;7.70;99.90;;;;;;5056065;28;20237;-60
2023/12/19 01:06:53;;;;;;;12.13;10.07;;;7.70;99.90;;;;;;5056069;28;20221;-62
2023/12/19 01:09:20;;;;;;;15.65;11.52;;;7.70;99.90;;;;;;5055961;28;20252;-61
2023/12/19 01:11:47;;;;;;;12.32;10.77;;;7.70;99.90;;;;;;5055849;28;20246;-61
2023/12/19 01:14:13;;;;;;;12.23;10.50;;;7.70;99.90;;;;;;5055851;28;20205;-62
2023/12/19 01:16:40;;;;;;;13.48;10.98;;;7.70;99.90;;;;;;5055336;28;20706;-60
2023/12/19 01:19:09;;;;;;;17.08;10.52;;;7.80;99.90;;;;;;5055294;28;20222;-60
2023/12/19 01:21:36;;;;;;;11.68;10.25;;;7.80;99.90;;;;;;5055461;28;20201;-61
2023/12/19 01:24:04;;;;;;;12.32;10.32;;;7.70;99.90;;;;;;5055986;28;20255;-62
2023/12/19 01:26:32;;;;;;;11.07;9.95;;;7.70;99.90;;;;;;5055508;28;20749;-62
2023/12/19 01:28:59;;;;;;;14.02;10.80;;;7.70;99.90;;;;;;5055626;28;20194;-60
2023/12/19 01:31:26;;;;;;;14.40;10.68;;;7.70;99.90;;;;;;5055523;28;20208;-61
2023/12/19 01:33:53;;;;;;;16.00;11.85;;;7.60;99.90;;;;;;5055221;28;20667;-61
2023/12/19 01:36:21;;;;;;;14.57;11.43;;;7.50;99.90;;;;;;5055238;28;20249;-61
2023/12/19 01:38:48;;;;;;;11.80;10.13;;;7.50;99.90;;;;;;5055521;28;20229;-59
2023/12/19 01:41:15;;;;;;;16.75;11.73;;;7.40;99.90;;;;;;5054712;28;20204;-61
2023/12/19 01:43:42;;;;;;;13.95;12.38;;;7.40;99.90;;;;;;5055387;28;20197;-60
2023/12/19 01:46:14;;;;;;;12.13;9.85;;;7.40;99.90;;;;;;5055320;28;20245;-61
2023/12/19 01:48:41;;;;;;;15.00;11.95;;;7.40;99.90;;;;;;5055862;28;20235;-60
2023/12/19 01:51:11;;;;;;;12.57;11.07;;;7.30;99.90;;;;;;5055520;28;20201;-61
2023/12/19 01:53:39;;;;;;;13.32;11.45;;;7.30;99.90;;;;;;5057048;28;20206;-61
2023/12/19 01:56:07;;;;;;;17.80;12.60;;;7.30;99.90;;;;;;5055228;28;20222;-61
2023/12/19 01:58:36;;;;;;;15.70;12.27;;;7.30;99.90;;;;;;5055402;28;20224;-61
2023/12/19 02:01:04;;;;;;;13.60;11.20;;;7.30;99.90;;;;;;5055040;28;20202;-61
2023/12/19 02:03:31;;;;;;;14.43;12.40;;;7.30;99.90;;;;;;5054992;28;20201;-60
2023/12/19 02:05:59;;;;;;;15.45;11.77;;;7.30;99.90;;;;;;5054969;28;20233;-61
2023/12/19 02:08:26;;;;;;;12.27;10.40;;;7.40;99.90;;;;;;5054870;28;20198;-61
2023/12/19 02:10:55;;;;;;;11.93;10.70;;;7.40;99.90;;;;;;5055060;28;20197;-60
2023/12/19 02:13:22;;;;;;;14.68;11.85;;;7.40;99.90;;;;;;5055090;28;20197;-60
2023/12/19 02:15:48;;;;;;;15.75;10.45;;;7.40;99.90;;;;;;5055232;28;20225;-61
2023/12/19 02:18:16;;;;;;;10.30;9.10;;;7.40;99.90;;;;;;5055315;28;20222;-62
2023/12/19 02:20:43;;;;;;;12.50;9.15;;;7.40;99.90;;;;;;5055063;28;20208;-60
2023/12/19 02:23:11;;;;;;;10.55;9.52;;;7.50;99.90;;;;;;5054642;28;20206;-60
2023/12/19 02:25:38;;;;;;;10.43;8.73;;;7.40;99.90;;;;;;5054523;28;20206;-61
2023/12/19 02:28:05;;;;;;;10.02;9.00;;;7.50;99.90;;;;;;5054457;28;20206;-60
2023/12/19 02:30:32;;;;;;;10.10;8.93;;;7.50;99.90;;;;;;5054338;28;20294;-59
2023/12/19 02:32:59;;;;;;;11.48;8.25;;;7.50;99.90;;;;;;5054590;28;20214;-60
2023/12/19 02:35:25;;;;;;;10.88;9.35;;;7.50;99.90;;;;;;5054485;28;20620;-61
2023/12/19 02:37:52;;;;;;;9.00;7.93;;;7.50;99.90;;;;;;5054537;28;20229;-61
2023/12/19 02:40:20;;;;;;;9.75;8.18;;;7.50;99.90;;;;;;5054334;28;20213;-61
2023/12/19 02:42:47;;;;;;;8.55;7.20;;;7.50;99.90;;;;;;5054614;28;20201;-62
2023/12/19 02:45:14;;;;;;;9.18;7.13;;;7.50;99.90;;;;;;5054531;28;20202;-60
2023/12/19 02:47:41;;;;;;;8.13;6.75;;;7.60;99.90;;;;;;5054453;28;20221;-60
2023/12/19 02:50:08;;;;;;;7.32;6.70;;;7.60;99.90;;;;;;5054566;28;20197;-60
2023/12/19 02:52:35;;;;;;;7.78;7.03;;;7.60;99.90;;;;;;5052806;28;20220;-60
2023/12/19 02:55:02;;;;;;;7.95;7.15;;;7.60;99.90;;;;;;5054057;28;20198;-60
2023/12/19 02:57:30;;;;;;;7.90;7.05;;;7.60;99.90;;;;;;5055243;28;20222;-60
2023/12/19 02:59:57;;;;;;;8.40;7.07;;;7.60;99.90;;;;;;5056829;28;20198;-59
2023/12/19 03:02:24;;;;;;;8.15;7.35;;;7.60;99.90;;;;;;5055669;28;20226;-60
2023/12/19 03:04:51;;;;;;;7.60;6.90;;;7.60;99.90;;;;;;5056315;28;20205;-60
2023/12/19 03:07:17;;;;;;;8.30;7.40;;;7.60;99.90;;;;;;5054310;28;20222;-61
2023/12/19 03:09:44;;;;;;;8.05;7.22;;;7.60;99.90;;;;;;5054358;28;20201;-61
2023/12/19 03:12:11;;;;;;;7.25;6.50;;;7.60;99.90;;;;;;5054486;28;20212;-61
2023/12/19 03:14:39;;;;;;;8.13;7.20;;;7.60;99.90;;;;;;5053813;28;20216;-62
2023/12/19 03:17:06;;;;;;;6.90;6.28;;;7.60;99.90;;;;;;5053727;28;20241;-61
2023/12/19 03:19:33;;;;;;;7.70;6.90;;;7.60;99.90;;;;;;5053882;28;20225;-60
2023/12/19 03:21:59;;;;;;;7.50;6.53;;;7.60;99.90;;;;;;5053810;28;20206;-60
2023/12/19 03:24:28;;;;;;;7.95;7.20;;;7.60;99.90;;;;;;5053716;28;20201;-59
2023/12/19 03:26:54;;;;;;;7.47;6.75;;;7.60;99.90;;;;;;5053129;28;20823;-61
2023/12/19 03:29:21;;;;;;;7.75;7.05;;;7.60;99.90;;;;;;5053377;28;20212;-61
2023/12/19 03:31:50;;;;;;;8.48;7.68;;;7.60;99.90;;;;;;5053357;28;20213;-61
2023/12/19 03:34:17;;;;;;;8.20;7.00;;;7.60;99.90;;;;;;5053322;28;20214;-61
2023/12/19 03:36:44;;;;;;;7.75;7.03;;;7.60;99.90;;;;;;5074964;22;20230;-62
2023/12/19 03:39:10;;;;;;;9.55;7.38;;;7.60;99.90;;;;;;5053683;28;20229;-62
2023/12/19 03:41:37;;;;;;;8.63;7.80;;;7.60;99.90;;;;;;5053419;28;20209;-63
2023/12/19 03:44:04;;;;;;;9.13;8.23;;;7.60;99.90;;;;;;5053753;28;20205;-62
2023/12/19 03:46:31;;;;;;;8.55;7.13;;;7.60;99.90;;;;;;5053509;28;20221;-62
2023/12/19 03:48:59;;;;;;;8.20;7.40;;;7.60;99.90;;;;;;5053577;28;20659;-63
2023/12/19 03:51:26;;;;;;;8.00;7.20;;;7.60;99.90;;;;;;5053112;28;20640;-62
2023/12/19 03:53:53;;;;;;;7.65;6.85;;;7.60;99.90;;;;;;5053198;28;20672;-62
2023/12/19 03:56:19;;;;;;;7.93;7.13;;;7.60;99.90;;;;;;5052900;28;20730;-63
2023/12/19 03:58:46;;;;;;;7.30;6.50;;;7.60;99.90;;;;;;5053290;28;20228;-62
2023/12/19 04:01:13;;;;;;;13.18;7.32;;;7.60;99.90;;;;;;5053686;28;20198;-61
2023/12/19 04:03:40;;;;;;;9.57;6.65;;;7.60;99.90;;;;;;5053030;28;20197;-62
2023/12/19 04:06:08;;;;;;;8.20;6.80;;;7.60;99.90;;;;;;5059378;28;20204;-62
2023/12/19 04:08:35;;;;;;;7.45;6.75;;;7.60;99.90;;;;;;5056925;28;20304;-62
2023/12/19 04:12:47;;;;;;;6.38;5.72;;;7.60;99.90;;;;;;5097123;27;20632;-62
2023/12/19 04:15:13;;;;;;;7.43;6.68;;;7.60;99.90;;;;;;5094577;28;20211;-62
2023/12/19 04:17:40;;;;;;;9.27;7.13;;;7.60;99.90;;;;;;5094171;28;20221;-60
2023/12/19 04:20:08;;;;;;;8.20;7.30;;;7.60;99.90;;;;;;5090922;28;20200;-62
2023/12/19 04:22:35;;;;;;;7.10;6.38;;;7.60;99.90;;;;;;5090813;28;20689;-61
2023/12/19 04:25:01;;;;;;;8.68;6.88;;;7.60;99.90;;;;;;5110756;22;20601;-60
2023/12/19 04:27:28;;;;;;;9.85;8.70;;;7.60;99.90;;;;;;5073997;28;20180;-61
2023/12/19 04:29:57;;;;;;;8.40;7.40;;;7.60;99.90;;;;;;5073475;28;20205;-61
2023/12/19 04:32:24;;;;;;;9.88;7.85;;;7.60;99.90;;;;;;5073857;28;20668;-60
2023/12/19 04:34:51;;;;;;;8.60;7.78;;;7.60;99.90;;;;;;5072896;28;20217;-60
2023/12/19 04:37:17;;;;;;;8.85;8.00;;;7.60;99.90;;;;;;5072167;28;20201;-59
2023/12/19 04:39:44;;;;;;;7.88;6.70;;;7.60;99.90;;;;;;5072094;28;20201;-60
2023/12/19 04:42:17;;;;;;;8.38;7.43;;;7.60;99.90;;;;;;5071986;28;20206;-61
2023/12/19 04:44:43;;;;;;;8.73;7.20;;;7.60;99.90;;;;;;5071542;28;20714;-61
2023/12/19 04:47:12;;;;;;;8.52;7.07;;;7.60;99.90;;;;;;5071913;28;20569;-61
2023/12/19 04:49:39;;;;;;;9.05;7.75;;;7.50;99.90;;;;;;5071564;28;20205;-60
2023/12/19 04:52:06;;;;;;;7.72;6.97;;;7.60;99.90;;;;;;5071696;28;20312;-58
2023/12/19 04:54:33;;;;;;;8.88;7.38;;;7.60;99.90;;;;;;5071402;28;20207;-60
2023/12/19 04:57:00;;;;;;;9.13;8.23;;;7.60;99.90;;;;;;5071662;28;20208;-60
2023/12/19 04:59:27;;;;;;;9.25;8.40;;;7.50;99.90;;;;;;5071797;28;20292;-60
2023/12/19 05:01:53;;;;;;;8.57;7.30;;;7.50;99.90;;;;;;5094062;22;20237;-60
2023/12/19 05:04:21;;;;;;;8.75;7.95;;;7.50;99.90;;;;;;5089578;28;20232;-60
2023/12/19 05:06:48;;;;;;;7.53;6.82;;;7.50;99.90;;;;;;5089377;28;20211;-60
2023/12/19 05:09:15;;;;;;;8.43;7.63;;;7.50;99.90;;;;;;5089452;28;20196;-60
2023/12/19 05:11:44;;;;;;;7.95;6.65;;;7.50;99.90;;;;;;5089180;28;20231;-60
2023/12/19 05:14:10;;;;;;;8.07;7.28;;;7.50;99.90;;;;;;5089432;28;20231;-61
2023/12/19 05:16:37;;;;;;;7.88;7.05;;;7.50;99.90;;;;;;5089861;28;20202;-60
2023/12/19 05:19:04;;;;;;;7.47;6.78;;;7.50;99.90;;;;;;5089318;28;20211;-60
2023/12/19 05:21:38;;;;;;;7.50;6.30;;;7.50;99.90;;;;;;5089092;28;20290;-61
2023/12/19 05:24:05;;;;;;;7.95;7.15;;;7.50;99.90;;;;;;5076316;28;20246;-60
2023/12/19 05:26:32;;;;;;;6.97;6.28;;;7.50;99.90;;;;;;5075288;28;20205;-60
2023/12/19 05:28:59;;;;;;;7.05;6.35;;;7.50;99.90;;;;;;5075488;28;20212;-60
2023/12/19 05:31:26;;;;;;;6.60;5.90;;;7.50;99.90;;;;;;5075187;28;20221;-61
2023/12/19 05:33:52;;;;;;;6.88;6.03;;;7.50;99.90;;;;;;5075527;28;20705;-59
2023/12/19 05:36:20;;;;;;;6.93;6.30;;;7.50;99.90;;;;;;5076180;28;20578;-59
2023/12/19 05:38:48;;;;;;;6.18;5.50;;;7.50;99.90;;;;;;5076450;28;20207;-61
2023/12/19 05:41:16;;;;;;;7.22;6.53;;;7.50;99.90;;;;;;5077112;28;20213;-60
2023/12/19 05:43:43;;;;;;;6.25;5.70;;;7.50;99.90;;;;;;5076016;28;20583;-60
2023/12/19 05:46:10;;;;;;;5.95;5.40;;;7.50;99.90;;;;;;5075630;28;20667;-60
2023/12/19 05:48:37;;;;;;;6.07;5.45;;;7.50;99.90;;;;;;5075805;28;20204;-60
2023/12/19 05:51:04;;;;;;;7.47;5.85;;;7.50;99.90;;;;;;5075253;28;20227;-61
2023/12/19 05:53:30;;;;;;;5.30;4.80;;;7.50;99.90;;;;;;5075289;28;20326;-58
2023/12/19 05:55:58;;;;;;;6.28;5.75;;;7.50;99.90;;;;;;5074887;28;20579;-60
2023/12/19 05:58:25;;;;;;;5.45;4.95;;;7.50;99.90;;;;;;5075252;28;20205;-60
2023/12/19 06:00:55;;;;;;;5.22;4.70;;;7.50;99.90;;;;;;5075028;28;20201;-61
2023/12/19 06:03:22;;;;;;;6.60;5.43;;;7.40;99.90;;;;;;5075024;28;20643;-60
2023/12/19 06:05:49;;;;;;;5.43;4.93;;;7.40;99.90;;;;;;5075125;28;20204;-60
2023/12/19 06:08:17;;;;;;;5.35;4.85;;;7.40;99.90;;;;;;5074651;28;20211;-60
2023/12/19 06:10:44;;;;;;;5.50;5.00;;;7.40;99.90;;;;;;5075424;28;20543;-61
2023/12/19 06:13:12;;;;;;;5.78;5.18;;;7.40;99.90;;;;;;5075527;28;20217;-59
2023/12/19 06:15:39;;;;;;;4.95;4.47;;;7.40;99.90;;;;;;5075078;28;20207;-61
2023/12/19 06:18:05;;;;;;;6.97;5.40;;;7.40;99.90;;;;;;5074683;28;20690;-61
2023/12/19 06:20:32;;;;;;;6.20;5.60;;;7.40;99.90;;;;;;5074519;28;20207;-61
2023/12/19 06:22:59;;;;;;;6.47;5.88;;;7.40;99.90;;;;;;5074518;28;20216;-60
2023/12/19 06:25:26;;;;;;;5.80;5.20;;;7.40;99.90;;;;;;5074374;28;20503;-61
2023/12/19 06:27:55;;;;;;;5.93;5.30;;;7.40;99.90;;;;;;5074249;28;20209;-59
2023/12/19 06:30:24;;;;;;;5.72;5.13;;;7.50;99.90;;;;;;5073943;28;20198;-59
2023/12/19 06:32:50;;;;;;;5.50;5.00;;;7.50;99.90;;;;;;5073868;28;20236;-61
2023/12/19 06:35:17;;;;;;;6.20;5.60;;;7.50;99.90;;;;;;5074055;28;20201;-60
2023/12/19 06:37:44;;;;;;;5.68;5.13;;;7.50;99.90;;;;;;5074180;28;20377;-62
2023/12/19 06:40:12;;;;;;;6.38;5.78;;;7.50;99.90;;;;;;5074148;28;20212;-60
2023/12/19 06:42:39;;;;;;;6.38;5.50;;;7.40;99.90;;;;;;5073798;28;20220;-60
2023/12/19 06:45:07;;;;;;;6.93;5.97;;;7.40;99.90;;;;;;5074269;28;20205;-60
2023/12/19 06:47:35;;;;;;;7.10;6.47;;;7.30;99.90;;;;;;5073968;28;20201;-60
2023/12/19 06:50:03;;;;;;;8.13;7.32;;;7.30;99.90;;;;;;5073795;28;20242;-60
2023/12/19 06:52:30;;;;;;;9.00;6.85;;;7.20;99.90;;;;;;5073873;28;20246;-61
2023/12/19 06:54:57;;;;;;;8.38;7.40;;;7.10;99.90;;;;;;5073991;28;20205;-61
2023/12/19 06:57:24;;;;;;;7.30;6.60;;;7.10;99.90;;;;;;5073603;28;20201;-60
2023/12/19 06:59:51;;;;;;;7.82;7.13;;;7.00;99.90;;;;;;5073516;28;20196;-61
2023/12/19 07:02:18;;;;;;;8.98;8.10;;;7.00;99.90;;;;;;5073117;28;20718;-61
2023/12/19 07:04:46;;;;;;;9.30;7.38;;;7.00;99.90;;;;;;5073146;28;20212;-61
2023/12/19 07:07:13;;;;;;;8.88;7.80;;;6.90;99.90;;;;;;5073411;28;20212;-61
2023/12/19 07:09:40;;;;;;;8.77;7.72;;;6.90;99.90;;;;;;5073504;28;20202;-61
2023/12/19 07:12:07;;;;;;;9.68;8.27;;;6.90;99.90;;;;;;5073600;28;20235;-61
2023/12/19 07:14:34;;;;;;;8.27;7.47;;;6.90;99.90;;;;;;5073435;28;20203;-61
2023/12/19 07:17:01;;;;;;;8.60;7.80;;;6.90;99.90;;;;;;5073161;28;20556;-60
2023/12/19 07:19:28;;;;;;;9.75;8.20;;;6.80;99.90;;;;;;5072960;28;20200;-59
2023/12/19 07:21:56;;;;;;;9.63;8.13;;;6.80;99.90;;;;;;5073052;28;20217;-60
2023/12/19 07:24:23;;;;;;;11.02;9.25;;;6.80;99.90;;;;;;5073082;28;20201;-61
2023/12/19 07:26:50;;;;;;;10.63;9.10;;;6.80;99.90;;;;;;5072740;28;20205;-61
2023/12/19 07:29:17;;;;;;;12.15;9.18;;;6.90;99.90;;;;;;5073045;28;20201;-61
2023/12/19 07:31:43;;;;;;;10.25;8.65;;;6.90;99.90;;;;;;5072598;28;20221;-61
2023/12/19 07:34:10;;;;;;;10.90;9.18;;;6.90;99.90;;;;;;5072943;28;20205;-60
2023/12/19 07:36:37;;;;;;;10.90;8.15;;;6.90;99.90;;;;;;5073276;28;20372;-61
2023/12/19 07:39:05;;;;;;;8.35;7.20;;;6.90;99.90;;;;;;5076278;28;20252;-60
2023/12/19 07:41:33;;;;;;;9.00;7.15;;;6.90;99.90;;;;;;5073565;28;20227;-61
2023/12/19 07:44:01;;;;;;;10.00;7.38;;;6.80;99.90;;;;;;5073067;28;20208;-61
2023/12/19 07:46:28;;;;;;;10.23;7.90;;;6.80;99.90;;;;;;5073746;28;20224;-61
2023/12/19 07:48:55;;;;;;;7.50;6.20;;;6.80;99.90;;;;;;5073124;28;20201;-61
2023/12/19 07:51:23;;;;;;;7.07;6.38;;;6.80;99.90;;;;;;5072894;28;20225;-62
2023/12/19 07:53:50;;;;;;;7.55;6.00;;;6.80;99.90;;;;;;5072911;28;20228;-61
2023/12/19 07:56:18;;;;;;;8.32;6.10;;;6.80;99.90;;;;;;5073062;28;20227;-61
2023/12/19 07:58:45;;;;;;;8.57;6.82;;;6.80;99.90;;;;;;5072991;28;20592;-62
2023/12/19 08:01:13;;;;;;;9.65;6.93;;;6.90;99.90;;;;;;5072837;28;20232;-62
2023/12/19 08:03:41;;;;;;;7.20;6.50;;;6.90;99.90;;;;;;5073274;28;20231;-61
2023/12/19 08:06:08;;;;;;;9.02;7.18;;;6.90;99.90;;;;;;5072842;28;20205;-61
2023/12/19 08:08:35;;;;;;;8.13;6.55;;;6.80;99.90;;;;;;5072866;28;20234;-61
2023/12/19 08:11:01;;;;;;;8.07;6.68;;;6.80;99.90;;;;;;5073249;28;20225;-61
2023/12/19 08:13:29;;;;;;;7.50;6.70;;;6.90;99.90;;;;;;5072874;28;20694;-60
2023/12/19 08:15:56;;;;;;;7.70;6.55;;;6.80;99.90;;;;;;5072617;28;20234;-60
2023/12/19 08:18:23;;;;;;;10.50;5.75;;;6.80;99.90;;;;;;5072796;28;20204;-60
2023/12/19 08:20:50;;;;;;;6.07;5.35;;;6.80;99.90;;;;;;5072879;28;20201;-61
2023/12/19 08:23:16;;;;;;;4.95;4.45;;;6.80;99.90;;;;;;5072186;28;20236;-62
2023/12/19 08:25:44;;;;;;;6.68;5.15;;;6.80;99.90;;;;;;5072609;28;20197;-61
2023/12/19 08:28:11;;;;;;;4.78;4.28;;;6.80;99.90;;;;;;5072257;28;20201;-63
2023/12/19 08:30:40;;;;;;;5.60;4.97;;;6.80;99.90;;;;;;5072278;28;20205;-60
2023/12/19 08:33:07;;;;;;;5.07;4.28;;;6.80;99.90;;;;;;5073184;28;20252;-60
2023/12/19 08:35:34;;;;;;;4.68;3.85;;;6.90;99.90;;;;;;5072126;28;20197;-60
2023/12/19 08:38:01;;;;;;;3.42;3.03;;;6.90;99.90;;;;;;5072624;28;20209;-60
2023/12/19 08:40:28;;;;;;;4.22;3.80;;;6.90;99.90;;;;;;5072442;28;20227;-60
2023/12/19 08:42:55;;;;;;;4.15;3.75;;;6.80;99.90;;;;;;5072695;28;20586;-61
2023/12/19 08:45:23;;;;;;;4.55;3.75;;;6.90;99.90;;;;;;5072782;28;20209;-60
2023/12/19 08:47:53;;;;;;;4.18;3.65;;;6.90;99.90;;;;;;5072073;28;20201;-61
2023/12/19 08:50:20;;;;;;;6.63;3.28;;;6.90;99.90;;;;;;5072221;28;20551;-59
2023/12/19 08:52:47;;;;;;;8.93;5.07;;;7.00;99.90;;;;;;5073184;28;20225;-61
2023/12/19 08:55:14;;;;;;;4.90;3.95;;;7.00;99.90;;;;;;5074605;28;20208;-60
2023/12/19 08:57:42;;;;;;;4.18;3.60;;;7.10;99.90;;;;;;5075095;28;20201;-61
2023/12/19 09:00:12;;;;;;;2.78;2.55;;;7.10;99.90;;;;;;5078429;28;20515;-61
2023/12/19 09:02:42;;;;;;;5.20;3.47;;;7.10;99.90;;;;;;5078496;28;20311;-62
2023/12/19 09:05:11;;;;;;;2.85;2.53;;;7.10;99.90;;;;;;5078649;28;20207;-60
2023/12/19 09:07:38;;;;;;;4.10;3.13;;;7.10;99.90;;;;;;5078656;28;20220;-61
2023/12/19 09:10:05;;;;;;;3.80;3.33;;;7.10;99.90;;;;;;5078286;28;20205;-60
2023/12/19 09:12:32;;;;;;;6.65;3.25;;;7.20;99.90;;;;;;5078451;28;20221;-61
2023/12/19 09:14:59;;;;;;;4.15;3.72;;;7.10;99.90;;;;;;5077786;28;20213;-59
2023/12/19 09:17:26;;;;;;;3.20;2.90;;;7.20;99.90;;;;;;5078316;28;20208;-60
2023/12/19 09:19:52;;;;;;;3.85;3.35;;;7.20;99.90;;;;;;5076587;28;20219;-59
2023/12/19 09:22:20;;;;;;;3.53;3.22;;;7.20;99.90;;;;;;5076428;28;20221;-59
2023/12/19 09:24:47;;;;;;;4.32;3.28;;;7.20;99.90;;;;;;5076813;28;20235;-61
2023/12/19 09:27:16;;;;;;;4.05;3.28;;;7.20;99.90;;;;;;5075335;28;20205;-60
2023/12/19 09:29:43;;;;;;;3.95;3.55;;;7.20;99.90;;;;;;5075427;28;20201;-60
2023/12/19 09:32:09;;;;;;;2.90;2.60;;;7.20;99.90;;;;;;5075099;28;20253;-60
2023/12/19 09:34:38;;;;;;;2.92;2.72;;;7.20;99.90;;;;;;5075729;28;20299;-60
2023/12/19 09:37:05;;;;;;;3.30;3.00;;;7.20;99.90;;;;;;5075030;28;20692;-61
2023/12/19 09:39:34;;;;;;;3.15;2.85;;;7.20;99.90;;;;;;5076103;28;20287;-60
2023/12/19 09:42:01;;;;;;;4.05;3.10;;;7.20;99.90;;;;;;5077055;28;20217;-59
2023/12/19 09:44:28;;;;;;;5.03;2.97;;;7.20;99.90;;;;;;5075807;28;20205;-59
2023/12/19 09:46:55;;;;;;;3.30;3.00;;;7.20;99.90;;;;;;5075473;28;20278;-61
2023/12/19 09:49:23;;;;;;;3.20;2.90;;;7.10;99.90;;;;;;5074801;28;20674;-61
2023/12/19 09:51:52;;;;;;;3.42;3.13;;;7.10;99.90;;;;;;5075142;28;20266;-60
2023/12/19 09:54:21;;;;;;;3.42;3.10;;;7.10;99.90;;;;;;5074854;28;20697;-61
2023/12/19 09:56:52;;;;;;;3.75;3.20;;;7.10;99.90;;;;;;5075072;28;20303;-61
2023/12/19 09:59:19;;;;;;;3.50;3.20;;;7.10;99.90;;;;;;5075057;28;20319;-60
2023/12/19 10:01:46;;;;;;;4.85;3.67;;;7.10;99.90;;;;;;5074620;28;20250;-61
2023/12/19 10:04:14;;;;;;;5.25;3.92;;;7.10;99.90;;;;;;5075295;28;20193;-61
2023/12/19 10:06:43;;;;;;;4.65;3.97;;;7.20;99.90;;;;;;5075245;28;20201;-60
2023/12/19 10:09:15;;;;;;;4.90;3.95;;;7.20;99.90;;;;;;5075435;28;20240;-61
2023/12/19 10:11:42;;;;;;;4.60;3.80;;;7.20;99.90;;;;;;5075179;28;20238;-62
2023/12/19 10:14:14;;;;;;;5.30;3.75;;;7.20;99.90;;;;;;5074834;28;20221;-61
2023/12/19 10:16:41;;;;;;;4.38;3.42;;;7.20;99.90;;;;;;5074625;28;20217;-61
2023/12/19 10:19:11;;;;;;;3.55;3.25;;;7.20;99.90;;;;;;5074696;28;20208;-61
2023/12/19 10:21:38;;;;;;;4.38;3.35;;;7.20;99.90;;;;;;5074963;28;20224;-60
2023/12/19 10:24:09;;;;;;;4.75;2.97;;;7.20;99.90;;;;;;5074694;28;20575;-61
2023/12/19 10:26:36;;;;;;;4.25;3.00;;;7.30;99.90;;;;;;5075171;28;20205;-61
2023/12/19 10:29:03;;;;;;;3.03;2.60;;;7.20;99.90;;;;;;5075135;28;20197;-61
2023/12/19 10:31:31;;;;;;;3.42;2.97;;;7.20;99.90;;;;;;5075055;28;20225;-61
2023/12/19 10:33:58;;;;;;;3.70;2.80;;;7.20;99.90;;;;;;5075574;28;20572;-62
2023/12/19 10:36:25;;;;;;;3.33;2.83;;;7.20;99.90;;;;;;5077907;28;20204;-62
2023/12/19 10:38:52;;;;;;;3.22;2.92;;;7.20;99.90;;;;;;5075679;28;20662;-62
2023/12/19 10:41:21;;;;;;;2.83;2.63;;;7.20;99.90;;;;;;5074731;28;20307;-60
2023/12/19 10:43:50;;;;;;;3.40;3.05;;;7.20;99.90;;;;;;5075895;28;20292;-61
2023/12/19 10:46:19;;;;;;;3.08;2.78;;;7.20;99.90;;;;;;5075000;28;20216;-58
2023/12/19 10:48:47;;;;;;;4.10;2.90;;;7.30;99.90;;;;;;5074422;28;20228;-61
2023/12/19 10:51:22;;;;;;;3.17;2.80;;;7.30;99.90;;;;;;5073736;28;20247;-61
2023/12/19 10:53:58;;;;;;;5.30;3.78;;;7.30;99.90;;;;;;5074017;28;20228;-61
2023/12/19 10:56:29;;;;;;;3.60;2.92;;;7.30;99.90;;;;;;5074072;28;20189;-62
2023/12/19 10:58:59;;;;;;;3.47;3.17;;;7.30;99.90;;;;;;5073996;28;20273;-61
2023/12/19 11:01:28;;;;;;;3.97;3.13;;;7.30;99.90;;;;;;5073533;28;20237;-60
2023/12/19 11:03:59;;;;;;;4.70;3.70;;;7.30;99.90;;;;;;5073640;28;20193;-62
2023/12/19 11:06:32;;;;;;;4.38;3.70;;;7.30;99.90;;;;;;5073419;28;20512;-63
2023/12/19 11:09:05;;;;;;;3.45;2.97;;;7.30;99.90;;;;;;5074105;28;20275;-61
2023/12/19 11:11:37;;;;;;;4.63;3.33;;;7.40;99.90;;;;;;5073413;28;20229;-62
2023/12/19 11:14:05;;;;;;;4.07;3.55;;;7.40;99.90;;;;;;5073734;28;20205;-62
2023/12/19 11:16:37;;;;;;;4.10;3.70;;;7.40;99.90;;;;;;5073462;28;20313;-61
2023/12/19 11:19:13;;;;;;;4.93;3.60;;;7.40;99.90;;;;;;5073015;28;20281;-63
2023/12/19 11:21:47;;;;;;;5.18;4.30;;;7.40;99.90;;;;;;5073816;28;20224;-62
2023/12/19 11:24:18;;;;;;;4.40;3.63;;;7.50;99.90;;;;;;5073294;28;20512;-62
2023/12/19 11:26:51;;;;;;;4.28;3.80;;;7.50;99.90;;;;;;5074253;28;20181;-63
2023/12/19 11:29:44;;;;;;;3.90;3.33;;;7.50;99.90;;;;;;5073324;28;20581;-61
2023/12/19 11:32:37;;;;;;;4.72;4.07;;;7.50;99.90;;;;;;5073965;28;20566;-62
2023/12/19 11:35:14;;;;;;;4.63;4.10;;;7.40;99.90;;;;;;5073480;28;20189;-62
2023/12/19 11:37:43;;;;;;;6.45;4.50;;;7.40;99.90;;;;;;5073678;28;20563;-62
2023/12/19 11:40:18;;;;;;;5.53;4.13;;;7.40;99.90;;;;;;5073570;28;20295;-61
2023/12/19 11:42:48;;;;;;;5.68;5.07;;;7.40;99.90;;;;;;5073077;28;20216;-62
2023/12/19 11:45:45;;;;;;;5.43;4.60;;;7.40;99.90;;;;;;5073031;28;20208;-62
2023/12/19 11:48:39;;;;;;;6.57;5.90;;;7.50;99.90;;;;;;4991539;28;20190;-60
2023/12/19 11:51:08;;;;;;;8.18;6.53;;;7.50;99.90;;;;;;5034131;28;20217;-61
2023/12/19 11:53:35;;;;;;;7.90;5.75;;;7.50;99.90;;;;;;5073219;28;20232;-63
2023/12/19 11:56:05;;;;;;;5.95;5.38;;;7.50;99.90;;;;;;5072524;28;20675;-62
2023/12/19 11:58:33;;;;;;;5.55;4.75;;;7.60;99.90;;;;;;5073228;28;20203;-62
2023/12/19 12:01:00;;;;;;;5.82;4.90;;;7.60;99.90;;;;;;5073002;28;20216;-63
2023/12/19 12:03:28;;;;;;;8.25;5.72;;;7.70;99.90;;;;;;5073093;28;20181;-59
2023/12/19 12:05:55;;;;;;;8.90;7.07;;;7.70;99.90;;;;;;5072382;28;20667;-65
2023/12/19 12:08:23;;;;;;;6.57;5.38;;;7.70;99.90;;;;;;5072651;28;20197;-66
2023/12/19 12:11:06;;;;;;;5.65;5.05;;;7.70;99.90;;;;;;5072692;28;20204;-65
2023/12/19 12:13:35;;;;;;;5.53;4.97;;;7.70;99.90;;;;;;5070901;28;20312;-67
2023/12/19 12:16:05;;;;;;;6.28;4.63;;;7.80;99.90;;;;;;5072617;28;20204;-66
2023/12/19 12:18:32;;;;;;;5.65;4.68;;;7.80;99.90;;;;;;5072323;28;20300;-65
2023/12/19 12:21:07;;;;;;;6.18;4.70;;;7.80;99.90;;;;;;5072441;28;20328;-66
2023/12/19 12:23:36;;;;;;;6.63;5.68;;;7.80;99.90;;;;;;5073488;28;20211;-66
2023/12/19 12:26:05;;;;;;;6.32;5.65;;;7.80;99.90;;;;;;5072429;28;20570;-66
2023/12/19 12:28:33;;;;;;;7.65;6.13;;;7.80;99.90;;;;;;5072618;28;20224;-66
2023/12/19 12:31:00;;;;;;;7.18;5.15;;;7.80;99.90;;;;;;5072550;28;20252;-67
2023/12/19 12:33:28;;;;;;;5.03;4.15;;;7.80;99.90;;;;;;5074828;28;20224;-67
2023/12/19 12:35:54;;;;;;;5.55;4.28;;;7.90;99.90;;;;;;5076703;28;20200;-65
2023/12/19 12:38:22;;;;;;;5.28;3.67;;;7.80;99.90;;;;;;5076150;28;20298;-67
2023/12/19 12:40:59;;;;;;;4.43;3.83;;;7.80;99.90;;;;;;5076521;28;20255;-66
2023/12/19 12:43:28;;;;;;;4.82;3.60;;;7.80;99.90;;;;;;5077001;28;20178;-67
2023/12/19 12:46:07;;;;;;;5.75;3.85;;;7.80;99.90;;;;;;5077074;28;20225;-66
2023/12/19 12:48:34;;;;;;;4.40;4.00;;;7.80;99.90;;;;;;5076780;28;20191;-66
2023/12/19 12:51:01;;;;;;;3.83;3.40;;;7.80;99.90;;;;;;5076795;28;20706;-68
2023/12/19 12:53:28;;;;;;;4.28;3.47;;;7.90;99.90;;;;;;5076998;28;20221;-67
2023/12/19 12:56:08;;;;;;;4.13;3.10;;;7.90;99.90;;;;;;5078845;28;20575;-67
2023/12/19 12:58:36;;;;;;;4.38;3.10;;;7.80;99.90;;;;;;5078121;28;20286;-67